sensor_id;sensor_type;location;lat;lon;timestamp;temperature;humidity
423;DHT22;198;48.752;9.180;2023-08-06T00:01:49;16.50;99.90
423;DHT22;198;48.752;9.180;2023-08-06T00:04:15;16.40;99.90
423;DHT22;198;48.752;9.180;2023-08-06T00:06:40;16.30;99.90
423;DHT22;198;48.752;9.180;2023-08-06T00:09:06;16.10;99.90
423;DHT22;198;48.752;9.180;2023-08-06T00:11:31;16.10;99.90
423;DHT22;198;48.752;9.180;2023-08-06T00:13:57;16.10;99.90
423;DHT22;198;48.752;9.180;2023-08-06T00:16:22;16.00;99.90
423;DHT22;198;48.752;9.180;2023-08-06T00:18:48;15.90;99.90
423;DHT22;198;48.752;9.180;2023-08-06T00:21:14;15.90;99.90
423;DHT22;198;48.752;9.180;2023-08-06T00:23:40;15.70;99.90
423;DHT22;198;48.752;9.180;2023-08-06T00:26:06;15.70;99.90
423;DHT22;198;48.752;9.180;2023-08-06T00:28:31;15.60;99.90
423;DHT22;198;48.752;9.180;2023-08-06T00:30:57;15.50;99.90
423;DHT22;198;48.752;9.180;2023-08-06T00:33:23;15.50;99.90
423;DHT22;198;48.752;9.180;2023-08-06T00:35:49;15.50;99.90
423;DHT22;198;48.752;9.180;2023-08-06T00:38:14;15.50;99.90
423;DHT22;198;48.752;9.180;2023-08-06T00:40:40;15.40;99.90
423;DHT22;198;48.752;9.180;2023-08-06T00:43:05;15.40;99.90
423;DHT22;198;48.752;9.180;2023-08-06T00:45:34;15.30;99.90
423;DHT22;198;48.752;9.180;2023-08-06T00:48:01;15.30;99.90
423;DHT22;198;48.752;9.180;2023-08-06T00:50:27;15.30;99.90
423;DHT22;198;48.752;9.180;2023-08-06T00:52:53;15.20;99.90
423;DHT22;198;48.752;9.180;2023-08-06T00:55:19;15.20;99.90
423;DHT22;198;48.752;9.180;2023-08-06T00:57:45;15.20;99.90
423;DHT22;198;48.752;9.180;2023-08-06T01:00:11;15.10;99.90
423;DHT22;198;48.752;9.180;2023-08-06T01:02:37;15.10;99.90
423;DHT22;198;48.752;9.180;2023-08-06T01:05:03;15.00;99.90
423;DHT22;198;48.752;9.180;2023-08-06T01:13:16;14.90;99.90
423;DHT22;198;48.752;9.180;2023-08-06T01:15:47;14.80;99.90
423;DHT22;198;48.752;9.180;2023-08-06T01:18:14;14.80;99.90
423;DHT22;198;48.752;9.180;2023-08-06T01:20:40;14.80;99.90
423;DHT22;198;48.752;9.180;2023-08-06T01:23:06;14.80;99.90
423;DHT22;198;48.752;9.180;2023-08-06T01:25:42;14.80;99.90
423;DHT22;198;48.752;9.180;2023-08-06T01:28:18;14.80;99.90
423;DHT22;198;48.752;9.180;2023-08-06T01:30:47;14.90;99.90
423;DHT22;198;48.752;9.180;2023-08-06T01:33:16;15.00;99.90
423;DHT22;198;48.752;9.180;2023-08-06T01:35:44;15.00;99.90
423;DHT22;198;48.752;9.180;2023-08-06T01:38:11;15.00;99.90
423;DHT22;198;48.752;9.180;2023-08-06T01:40:37;15.00;99.90
423;DHT22;198;48.752;9.180;2023-08-06T01:43:02;15.00;99.90
423;DHT22;198;48.752;9.180;2023-08-06T01:45:28;15.00;99.90
423;DHT22;198;48.752;9.180;2023-08-06T01:47:53;14.90;99.90
423;DHT22;198;48.752;9.180;2023-08-06T01:50:19;14.90;99.90
423;DHT22;198;48.752;9.180;2023-08-06T01:52:44;14.80;99.90
423;DHT22;198;48.752;9.180;2023-08-06T01:55:10;14.80;99.90
423;DHT22;198;48.752;9.180;2023-08-06T01:57:35;14.70;99.90
423;DHT22;198;48.752;9.180;2023-08-06T02:00:00;14.70;99.90
423;DHT22;198;48.752;9.180;2023-08-06T02:02:26;14.60;99.90
423;DHT22;198;48.752;9.180;2023-08-06T02:04:52;14.60;99.90
423;DHT22;198;48.752;9.180;2023-08-06T02:07:17;14.50;99.90
423;DHT22;198;48.752;9.180;2023-08-06T02:09:42;14.40;99.90
423;DHT22;198;48.752;9.180;2023-08-06T02:12:08;14.40;99.90
423;DHT22;198;48.752;9.180;2023-08-06T02:14:34;14.40;99.90
423;DHT22;198;48.752;9.180;2023-08-06T02:16:59;14.30;99.90
423;DHT22;198;48.752;9.180;2023-08-06T02:19:25;14.30;99.90
423;DHT22;198;48.752;9.180;2023-08-06T02:21:50;14.20;99.90
423;DHT22;198;48.752;9.180;2023-08-06T02:24:16;14.20;99.90
423;DHT22;198;48.752;9.180;2023-08-06T02:26:41;14.10;99.90
423;DHT22;198;48.752;9.180;2023-08-06T02:29:07;14.10;99.90
423;DHT22;198;48.752;9.180;2023-08-06T02:31:32;14.00;99.90
423;DHT22;198;48.752;9.180;2023-08-06T02:33:58;14.00;99.90
423;DHT22;198;48.752;9.180;2023-08-06T02:36:24;14.00;99.90
423;DHT22;198;48.752;9.180;2023-08-06T02:38:49;13.90;99.90
423;DHT22;198;48.752;9.180;2023-08-06T02:41:15;13.90;99.90
423;DHT22;198;48.752;9.180;2023-08-06T02:43:40;13.90;99.90
423;DHT22;198;48.752;9.180;2023-08-06T02:46:06;13.90;99.90
423;DHT22;198;48.752;9.180;2023-08-06T02:48:31;13.80;99.90
423;DHT22;198;48.752;9.180;2023-08-06T02:50:58;13.80;99.90
423;DHT22;198;48.752;9.180;2023-08-06T02:53:24;13.80;99.90
423;DHT22;198;48.752;9.180;2023-08-06T02:55:50;13.70;99.90
423;DHT22;198;48.752;9.180;2023-08-06T02:58:16;13.80;99.90
423;DHT22;198;48.752;9.180;2023-08-06T03:00:42;13.70;99.90
423;DHT22;198;48.752;9.180;2023-08-06T03:03:08;13.80;99.90
423;DHT22;198;48.752;9.180;2023-08-06T03:05:34;13.70;99.90
423;DHT22;198;48.752;9.180;2023-08-06T03:07:59;13.80;99.90
423;DHT22;198;48.752;9.180;2023-08-06T03:10:25;13.90;99.90
423;DHT22;198;48.752;9.180;2023-08-06T03:12:50;14.00;99.90
423;DHT22;198;48.752;9.180;2023-08-06T03:15:16;14.00;99.90
423;DHT22;198;48.752;9.180;2023-08-06T03:17:41;14.10;99.90
423;DHT22;198;48.752;9.180;2023-08-06T03:20:07;14.20;99.90
423;DHT22;198;48.752;9.180;2023-08-06T03:22:33;14.20;99.90
423;DHT22;198;48.752;9.180;2023-08-06T03:24:58;14.30;99.90
423;DHT22;198;48.752;9.180;2023-08-06T03:27:24;14.30;99.90
423;DHT22;198;48.752;9.180;2023-08-06T03:29:49;14.30;99.90
423;DHT22;198;48.752;9.180;2023-08-06T03:32:18;14.40;99.90
423;DHT22;198;48.752;9.180;2023-08-06T03:34:43;14.40;99.90
423;DHT22;198;48.752;9.180;2023-08-06T03:37:09;14.40;99.90
423;DHT22;198;48.752;9.180;2023-08-06T03:39:34;14.40;99.90
423;DHT22;198;48.752;9.180;2023-08-06T03:42:00;14.50;99.90
423;DHT22;198;48.752;9.180;2023-08-06T03:44:25;14.50;99.90
423;DHT22;198;48.752;9.180;2023-08-06T03:46:52;14.50;99.90
423;DHT22;198;48.752;9.180;2023-08-06T03:49:18;14.50;99.90
423;DHT22;198;48.752;9.180;2023-08-06T03:51:43;14.50;99.90
423;DHT22;198;48.752;9.180;2023-08-06T03:54:09;14.50;99.90
423;DHT22;198;48.752;9.180;2023-08-06T03:56:34;14.60;99.90
423;DHT22;198;48.752;9.180;2023-08-06T03:59:00;14.60;99.90
423;DHT22;198;48.752;9.180;2023-08-06T04:01:25;14.60;99.90
423;DHT22;198;48.752;9.180;2023-08-06T04:03:50;14.60;99.90
423;DHT22;198;48.752;9.180;2023-08-06T04:06:16;14.60;99.90
423;DHT22;198;48.752;9.180;2023-08-06T04:08:41;14.60;99.90
423;DHT22;198;48.752;9.180;2023-08-06T04:11:07;14.60;99.90
423;DHT22;198;48.752;9.180;2023-08-06T04:13:33;14.70;99.90
423;DHT22;198;48.752;9.180;2023-08-06T04:16:02;14.70;99.90
423;DHT22;198;48.752;9.180;2023-08-06T04:18:28;14.70;99.90
423;DHT22;198;48.752;9.180;2023-08-06T04:20:53;14.80;99.90
423;DHT22;198;48.752;9.180;2023-08-06T04:23:20;14.80;99.90
423;DHT22;198;48.752;9.180;2023-08-06T04:25:46;14.80;99.90
423;DHT22;198;48.752;9.180;2023-08-06T04:28:11;14.80;99.90
423;DHT22;198;48.752;9.180;2023-08-06T04:30:37;14.90;99.90
423;DHT22;198;48.752;9.180;2023-08-06T04:33:03;14.90;99.90
423;DHT22;198;48.752;9.180;2023-08-06T04:35:28;14.90;99.90
423;DHT22;198;48.752;9.180;2023-08-06T04:37:54;14.90;99.90
423;DHT22;198;48.752;9.180;2023-08-06T04:40:19;14.90;99.90
423;DHT22;198;48.752;9.180;2023-08-06T04:42:45;14.90;99.90
423;DHT22;198;48.752;9.180;2023-08-06T04:45:10;14.90;99.90
423;DHT22;198;48.752;9.180;2023-08-06T04:47:36;14.90;99.90
423;DHT22;198;48.752;9.180;2023-08-06T04:50:01;15.00;99.90
423;DHT22;198;48.752;9.180;2023-08-06T04:52:27;15.00;99.90
423;DHT22;198;48.752;9.180;2023-08-06T04:54:54;15.00;99.90
423;DHT22;198;48.752;9.180;2023-08-06T04:57:19;15.00;99.90
423;DHT22;198;48.752;9.180;2023-08-06T04:59:45;15.00;99.90
423;DHT22;198;48.752;9.180;2023-08-06T05:02:10;15.00;99.90
423;DHT22;198;48.752;9.180;2023-08-06T05:04:36;15.00;99.90
423;DHT22;198;48.752;9.180;2023-08-06T05:07:02;15.10;99.90
423;DHT22;198;48.752;9.180;2023-08-06T05:09:27;15.20;99.90
423;DHT22;198;48.752;9.180;2023-08-06T05:11:53;15.30;99.90
423;DHT22;198;48.752;9.180;2023-08-06T05:14:18;15.50;99.90
423;DHT22;198;48.752;9.180;2023-08-06T05:16:43;15.50;99.90
423;DHT22;198;48.752;9.180;2023-08-06T05:19:09;15.50;99.90
423;DHT22;198;48.752;9.180;2023-08-06T05:21:34;15.30;99.90
423;DHT22;198;48.752;9.180;2023-08-06T05:24:00;15.20;99.90
423;DHT22;198;48.752;9.180;2023-08-06T05:26:25;15.10;99.90
423;DHT22;198;48.752;9.180;2023-08-06T05:28:51;15.00;99.90
423;DHT22;198;48.752;9.180;2023-08-06T05:31:16;15.00;99.90
423;DHT22;198;48.752;9.180;2023-08-06T05:33:42;15.10;99.90
423;DHT22;198;48.752;9.180;2023-08-06T05:36:07;15.20;99.90
423;DHT22;198;48.752;9.180;2023-08-06T05:38:33;15.50;99.90
423;DHT22;198;48.752;9.180;2023-08-06T05:40:58;15.60;99.90
423;DHT22;198;48.752;9.180;2023-08-06T05:43:24;15.80;99.90
423;DHT22;198;48.752;9.180;2023-08-06T05:45:50;15.90;99.90
423;DHT22;198;48.752;9.180;2023-08-06T05:48:16;16.00;99.90
423;DHT22;198;48.752;9.180;2023-08-06T05:50:41;16.00;99.90
423;DHT22;198;48.752;9.180;2023-08-06T05:53:07;16.00;99.90
423;DHT22;198;48.752;9.180;2023-08-06T05:55:33;16.10;99.90
423;DHT22;198;48.752;9.180;2023-08-06T05:57:59;16.00;99.90
423;DHT22;198;48.752;9.180;2023-08-06T06:00:24;16.00;99.90
423;DHT22;198;48.752;9.180;2023-08-06T06:02:50;15.90;99.90
423;DHT22;198;48.752;9.180;2023-08-06T06:05:15;15.90;99.90
423;DHT22;198;48.752;9.180;2023-08-06T06:07:41;15.80;99.90
423;DHT22;198;48.752;9.180;2023-08-06T06:10:07;15.80;99.90
423;DHT22;198;48.752;9.180;2023-08-06T06:12:32;15.80;99.90
423;DHT22;198;48.752;9.180;2023-08-06T06:14:58;15.80;99.90
423;DHT22;198;48.752;9.180;2023-08-06T06:17:26;15.90;99.90
423;DHT22;198;48.752;9.180;2023-08-06T06:19:52;15.90;99.90
423;DHT22;198;48.752;9.180;2023-08-06T06:22:17;16.00;99.90
423;DHT22;198;48.752;9.180;2023-08-06T06:24:43;16.20;99.90
423;DHT22;198;48.752;9.180;2023-08-06T06:27:08;16.20;99.90
423;DHT22;198;48.752;9.180;2023-08-06T06:29:34;16.20;99.90
423;DHT22;198;48.752;9.180;2023-08-06T06:31:59;16.10;99.90
423;DHT22;198;48.752;9.180;2023-08-06T06:34:25;16.10;99.90
423;DHT22;198;48.752;9.180;2023-08-06T06:36:50;16.00;99.90
423;DHT22;198;48.752;9.180;2023-08-06T06:39:17;16.10;99.90
423;DHT22;198;48.752;9.180;2023-08-06T06:41:43;16.10;99.90
423;DHT22;198;48.752;9.180;2023-08-06T06:44:09;16.10;99.90
423;DHT22;198;48.752;9.180;2023-08-06T06:46:35;16.20;99.90
423;DHT22;198;48.752;9.180;2023-08-06T06:49:00;16.30;99.90
423;DHT22;198;48.752;9.180;2023-08-06T06:51:26;16.40;99.90
423;DHT22;198;48.752;9.180;2023-08-06T06:53:51;16.50;99.90
423;DHT22;198;48.752;9.180;2023-08-06T06:56:17;16.50;99.90
423;DHT22;198;48.752;9.180;2023-08-06T06:58:42;16.50;99.90
423;DHT22;198;48.752;9.180;2023-08-06T07:01:09;16.40;99.90
423;DHT22;198;48.752;9.180;2023-08-06T07:03:35;16.30;99.90
423;DHT22;198;48.752;9.180;2023-08-06T07:06:01;16.20;99.90
423;DHT22;198;48.752;9.180;2023-08-06T07:08:27;16.10;99.90
423;DHT22;198;48.752;9.180;2023-08-06T07:11:13;16.10;99.90
423;DHT22;198;48.752;9.180;2023-08-06T07:13:38;16.00;99.90
423;DHT22;198;48.752;9.180;2023-08-06T07:16:04;16.10;99.90
423;DHT22;198;48.752;9.180;2023-08-06T07:18:29;16.20;99.90
423;DHT22;198;48.752;9.180;2023-08-06T07:20:55;16.10;99.90
423;DHT22;198;48.752;9.180;2023-08-06T07:23:23;16.10;99.90
423;DHT22;198;48.752;9.180;2023-08-06T07:25:49;16.10;99.90
423;DHT22;198;48.752;9.180;2023-08-06T07:28:15;16.10;99.90
423;DHT22;198;48.752;9.180;2023-08-06T07:30:42;16.00;99.90
423;DHT22;198;48.752;9.180;2023-08-06T07:33:08;16.00;99.90
423;DHT22;198;48.752;9.180;2023-08-06T07:35:33;16.10;99.90
423;DHT22;198;48.752;9.180;2023-08-06T07:37:59;16.10;99.90
423;DHT22;198;48.752;9.180;2023-08-06T07:40:25;16.10;99.90
423;DHT22;198;48.752;9.180;2023-08-06T07:42:50;16.10;99.90
423;DHT22;198;48.752;9.180;2023-08-06T07:45:16;16.10;99.90
423;DHT22;198;48.752;9.180;2023-08-06T07:47:41;16.10;99.90
423;DHT22;198;48.752;9.180;2023-08-06T07:50:08;16.10;99.90
423;DHT22;198;48.752;9.180;2023-08-06T07:52:34;16.30;99.90
423;DHT22;198;48.752;9.180;2023-08-06T07:54:59;16.30;99.90
423;DHT22;198;48.752;9.180;2023-08-06T07:57:26;16.40;99.90
423;DHT22;198;48.752;9.180;2023-08-06T07:59:52;16.50;99.90
423;DHT22;198;48.752;9.180;2023-08-06T08:02:19;16.40;99.90
423;DHT22;198;48.752;9.180;2023-08-06T08:04:44;16.50;99.90
423;DHT22;198;48.752;9.180;2023-08-06T08:07:12;16.60;99.90
423;DHT22;198;48.752;9.180;2023-08-06T08:09:38;16.90;99.90
423;DHT22;198;48.752;9.180;2023-08-06T08:12:03;17.10;99.90
423;DHT22;198;48.752;9.180;2023-08-06T08:14:29;17.20;99.90
423;DHT22;198;48.752;9.180;2023-08-06T08:17:00;17.20;99.90
423;DHT22;198;48.752;9.180;2023-08-06T08:19:25;17.40;99.90
423;DHT22;198;48.752;9.180;2023-08-06T08:21:51;17.50;99.90
423;DHT22;198;48.752;9.180;2023-08-06T08:24:16;17.80;99.90
423;DHT22;198;48.752;9.180;2023-08-06T08:26:45;18.00;99.90
423;DHT22;198;48.752;9.180;2023-08-06T08:29:10;17.80;99.90
423;DHT22;198;48.752;9.180;2023-08-06T08:31:36;17.90;99.90
423;DHT22;198;48.752;9.180;2023-08-06T08:34:05;17.80;99.90
423;DHT22;198;48.752;9.180;2023-08-06T08:36:31;17.80;99.90
423;DHT22;198;48.752;9.180;2023-08-06T08:38:56;17.50;99.90
423;DHT22;198;48.752;9.180;2023-08-06T08:41:22;17.40;99.90
423;DHT22;198;48.752;9.180;2023-08-06T08:43:50;17.40;99.90
423;DHT22;198;48.752;9.180;2023-08-06T08:46:19;17.20;99.90
423;DHT22;198;48.752;9.180;2023-08-06T08:48:45;17.20;99.90
423;DHT22;198;48.752;9.180;2023-08-06T08:51:12;17.30;99.90
423;DHT22;198;48.752;9.180;2023-08-06T08:53:39;17.30;99.90
423;DHT22;198;48.752;9.180;2023-08-06T08:56:05;17.30;99.90
423;DHT22;198;48.752;9.180;2023-08-06T08:58:32;17.30;99.90
423;DHT22;198;48.752;9.180;2023-08-06T09:00:58;17.30;99.90
423;DHT22;198;48.752;9.180;2023-08-06T09:03:23;17.40;99.90
423;DHT22;198;48.752;9.180;2023-08-06T09:05:53;17.50;99.90
423;DHT22;198;48.752;9.180;2023-08-06T09:08:22;17.60;99.90
423;DHT22;198;48.752;9.180;2023-08-06T09:10:49;17.60;99.90
423;DHT22;198;48.752;9.180;2023-08-06T09:13:16;17.80;99.90
423;DHT22;198;48.752;9.180;2023-08-06T09:15:41;18.10;99.90
423;DHT22;198;48.752;9.180;2023-08-06T09:18:10;18.50;99.90
423;DHT22;198;48.752;9.180;2023-08-06T09:20:37;18.70;99.90
423;DHT22;198;48.752;9.180;2023-08-06T09:23:10;18.80;99.90
423;DHT22;198;48.752;9.180;2023-08-06T09:25:38;18.80;99.90
423;DHT22;198;48.752;9.180;2023-08-06T09:28:03;18.70;99.90
423;DHT22;198;48.752;9.180;2023-08-06T09:30:31;18.90;99.90
423;DHT22;198;48.752;9.180;2023-08-06T09:32:57;18.80;99.90
423;DHT22;198;48.752;9.180;2023-08-06T09:35:23;18.50;99.90
423;DHT22;198;48.752;9.180;2023-08-06T09:37:48;18.30;99.90
423;DHT22;198;48.752;9.180;2023-08-06T09:40:32;18.10;99.90
423;DHT22;198;48.752;9.180;2023-08-06T09:42:58;18.10;99.90
423;DHT22;198;48.752;9.180;2023-08-06T09:45:32;17.90;99.90
423;DHT22;198;48.752;9.180;2023-08-06T09:47:59;17.80;99.90
423;DHT22;198;48.752;9.180;2023-08-06T09:50:30;17.90;99.90
423;DHT22;198;48.752;9.180;2023-08-06T09:53:00;18.10;99.90
423;DHT22;198;48.752;9.180;2023-08-06T09:55:26;18.30;99.90
423;DHT22;198;48.752;9.180;2023-08-06T09:57:52;18.40;99.90
423;DHT22;198;48.752;9.180;2023-08-06T10:00:18;18.40;99.90
423;DHT22;198;48.752;9.180;2023-08-06T10:02:44;18.30;99.90
423;DHT22;198;48.752;9.180;2023-08-06T10:05:10;18.20;99.90
423;DHT22;198;48.752;9.180;2023-08-06T10:07:36;17.90;99.90
423;DHT22;198;48.752;9.180;2023-08-06T10:10:02;17.80;99.90
423;DHT22;198;48.752;9.180;2023-08-06T10:12:31;17.50;99.90
423;DHT22;198;48.752;9.180;2023-08-06T10:15:00;17.40;99.90
423;DHT22;198;48.752;9.180;2023-08-06T10:17:27;17.40;99.90
423;DHT22;198;48.752;9.180;2023-08-06T10:19:53;17.20;99.90
423;DHT22;198;48.752;9.180;2023-08-06T10:22:21;17.30;99.90
423;DHT22;198;48.752;9.180;2023-08-06T10:27:16;17.20;99.90
423;DHT22;198;48.752;9.180;2023-08-06T10:29:44;16.90;99.90
423;DHT22;198;48.752;9.180;2023-08-06T10:32:10;16.60;99.90
423;DHT22;198;48.752;9.180;2023-08-06T10:35:10;16.60;99.90
423;DHT22;198;48.752;9.180;2023-08-06T10:37:52;16.80;99.90
423;DHT22;198;48.752;9.180;2023-08-06T10:40:21;17.00;99.90
423;DHT22;198;48.752;9.180;2023-08-06T10:42:46;16.90;99.90
423;DHT22;198;48.752;9.180;2023-08-06T10:45:19;16.80;99.90
423;DHT22;198;48.752;9.180;2023-08-06T10:47:45;16.90;99.90
423;DHT22;198;48.752;9.180;2023-08-06T10:50:15;17.20;99.90
423;DHT22;198;48.752;9.180;2023-08-06T10:52:43;17.60;99.90
423;DHT22;198;48.752;9.180;2023-08-06T10:55:09;17.70;99.90
423;DHT22;198;48.752;9.180;2023-08-06T10:57:35;17.70;99.90
423;DHT22;198;48.752;9.180;2023-08-06T11:00:01;17.80;99.90
423;DHT22;198;48.752;9.180;2023-08-06T11:02:28;17.90;99.90
423;DHT22;198;48.752;9.180;2023-08-06T11:04:53;17.80;99.90
423;DHT22;198;48.752;9.180;2023-08-06T11:07:19;17.70;99.90
423;DHT22;198;48.752;9.180;2023-08-06T11:09:50;17.60;99.90
423;DHT22;198;48.752;9.180;2023-08-06T11:12:19;17.50;99.90
423;DHT22;198;48.752;9.180;2023-08-06T11:14:50;17.40;99.90
423;DHT22;198;48.752;9.180;2023-08-06T11:17:15;17.40;99.90
423;DHT22;198;48.752;9.180;2023-08-06T11:19:41;17.20;99.90
423;DHT22;198;48.752;9.180;2023-08-06T11:22:07;17.00;99.90
423;DHT22;198;48.752;9.180;2023-08-06T11:24:32;16.80;99.90
423;DHT22;198;48.752;9.180;2023-08-06T11:26:58;16.80;99.90
423;DHT22;198;48.752;9.180;2023-08-06T11:29:23;16.80;99.90
423;DHT22;198;48.752;9.180;2023-08-06T11:31:49;17.10;99.90
423;DHT22;198;48.752;9.180;2023-08-06T11:34:15;17.90;99.90
423;DHT22;198;48.752;9.180;2023-08-06T11:36:42;19.60;99.90
423;DHT22;198;48.752;9.180;2023-08-06T11:39:08;20.30;99.90
423;DHT22;198;48.752;9.180;2023-08-06T11:41:35;19.90;99.90
423;DHT22;198;48.752;9.180;2023-08-06T11:44:03;19.30;99.90
423;DHT22;198;48.752;9.180;2023-08-06T11:46:29;18.90;99.90
423;DHT22;198;48.752;9.180;2023-08-06T11:48:56;18.80;99.90
423;DHT22;198;48.752;9.180;2023-08-06T11:51:23;18.90;99.90
423;DHT22;198;48.752;9.180;2023-08-06T11:53:49;18.60;99.90
423;DHT22;198;48.752;9.180;2023-08-06T11:56:16;18.30;99.90
423;DHT22;198;48.752;9.180;2023-08-06T11:58:42;18.10;99.90
423;DHT22;198;48.752;9.180;2023-08-06T12:01:07;17.60;99.90
423;DHT22;198;48.752;9.180;2023-08-06T12:03:39;17.20;99.90
423;DHT22;198;48.752;9.180;2023-08-06T12:06:04;17.00;99.90
423;DHT22;198;48.752;9.180;2023-08-06T12:08:30;16.80;99.90
423;DHT22;198;48.752;9.180;2023-08-06T12:10:55;16.70;99.90
423;DHT22;198;48.752;9.180;2023-08-06T12:13:21;16.60;99.90
423;DHT22;198;48.752;9.180;2023-08-06T12:15:46;16.50;99.90
423;DHT22;198;48.752;9.180;2023-08-06T12:18:12;16.50;99.90
423;DHT22;198;48.752;9.180;2023-08-06T12:20:37;16.50;99.90
423;DHT22;198;48.752;9.180;2023-08-06T12:23:04;16.50;99.90
423;DHT22;198;48.752;9.180;2023-08-06T12:25:29;16.50;99.90
423;DHT22;198;48.752;9.180;2023-08-06T12:27:55;16.70;99.90
423;DHT22;198;48.752;9.180;2023-08-06T12:30:20;16.80;99.90
423;DHT22;198;48.752;9.180;2023-08-06T12:32:46;16.80;99.90
423;DHT22;198;48.752;9.180;2023-08-06T12:35:11;16.70;99.90
423;DHT22;198;48.752;9.180;2023-08-06T12:37:37;17.00;99.90
423;DHT22;198;48.752;9.180;2023-08-06T12:40:06;17.20;99.90
423;DHT22;198;48.752;9.180;2023-08-06T12:42:32;17.40;99.90
423;DHT22;198;48.752;9.180;2023-08-06T12:44:58;17.90;99.90
423;DHT22;198;48.752;9.180;2023-08-06T12:47:23;18.60;99.90
423;DHT22;198;48.752;9.180;2023-08-06T12:49:49;19.00;99.90
423;DHT22;198;48.752;9.180;2023-08-06T12:52:15;19.00;99.90
423;DHT22;198;48.752;9.180;2023-08-06T12:54:41;19.00;99.90
423;DHT22;198;48.752;9.180;2023-08-06T12:57:07;18.80;99.90
423;DHT22;198;48.752;9.180;2023-08-06T12:59:33;18.70;99.90
423;DHT22;198;48.752;9.180;2023-08-06T13:02:00;18.70;99.90
423;DHT22;198;48.752;9.180;2023-08-06T13:04:25;18.50;99.90
423;DHT22;198;48.752;9.180;2023-08-06T13:06:51;18.30;99.90
423;DHT22;198;48.752;9.180;2023-08-06T13:09:16;18.20;99.90
423;DHT22;198;48.752;9.180;2023-08-06T13:11:42;18.30;99.90
423;DHT22;198;48.752;9.180;2023-08-06T13:14:11;18.60;99.90
423;DHT22;198;48.752;9.180;2023-08-06T13:16:39;19.00;99.90
423;DHT22;198;48.752;9.180;2023-08-06T13:19:05;19.50;99.90
423;DHT22;198;48.752;9.180;2023-08-06T13:21:33;19.80;99.90
423;DHT22;198;48.752;9.180;2023-08-06T13:24:03;20.00;98.40
423;DHT22;198;48.752;9.180;2023-08-06T13:26:29;20.20;97.70
423;DHT22;198;48.752;9.180;2023-08-06T13:28:59;20.30;96.90
423;DHT22;198;48.752;9.180;2023-08-06T13:31:25;20.40;95.70
423;DHT22;198;48.752;9.180;2023-08-06T13:33:51;20.30;94.30
423;DHT22;198;48.752;9.180;2023-08-06T13:36:17;20.10;93.90
423;DHT22;198;48.752;9.180;2023-08-06T13:38:43;19.90;94.30
423;DHT22;198;48.752;9.180;2023-08-06T13:41:08;19.60;94.70
423;DHT22;198;48.752;9.180;2023-08-06T13:43:34;19.40;95.50
423;DHT22;198;48.752;9.180;2023-08-06T13:45:59;19.50;94.90
423;DHT22;198;48.752;9.180;2023-08-06T13:48:25;19.50;95.60
423;DHT22;198;48.752;9.180;2023-08-06T13:50:50;19.40;95.70
423;DHT22;198;48.752;9.180;2023-08-06T13:53:16;19.40;93.80
423;DHT22;198;48.752;9.180;2023-08-06T13:55:41;19.40;94.00
423;DHT22;198;48.752;9.180;2023-08-06T13:58:07;19.60;93.60
423;DHT22;198;48.752;9.180;2023-08-06T14:00:35;19.80;92.80
423;DHT22;198;48.752;9.180;2023-08-06T14:03:00;20.10;92.10
423;DHT22;198;48.752;9.180;2023-08-06T14:05:26;20.00;91.70
423;DHT22;198;48.752;9.180;2023-08-06T14:07:51;19.90;91.60
423;DHT22;198;48.752;9.180;2023-08-06T14:10:17;19.90;91.30
423;DHT22;198;48.752;9.180;2023-08-06T14:12:42;19.80;91.90
423;DHT22;198;48.752;9.180;2023-08-06T14:15:08;19.60;91.60
423;DHT22;198;48.752;9.180;2023-08-06T14:17:34;19.50;93.10
423;DHT22;198;48.752;9.180;2023-08-06T14:19:59;19.50;92.70
423;DHT22;198;48.752;9.180;2023-08-06T14:22:26;19.70;92.60
423;DHT22;198;48.752;9.180;2023-08-06T14:24:51;20.00;91.20
423;DHT22;198;48.752;9.180;2023-08-06T14:27:17;19.90;90.90
423;DHT22;198;48.752;9.180;2023-08-06T14:29:42;19.50;90.70
423;DHT22;198;48.752;9.180;2023-08-06T14:32:08;19.30;91.80
423;DHT22;198;48.752;9.180;2023-08-06T14:34:33;19.30;92.90
423;DHT22;198;48.752;9.180;2023-08-06T14:36:59;19.60;92.30
423;DHT22;198;48.752;9.180;2023-08-06T14:39:24;19.50;92.40
423;DHT22;198;48.752;9.180;2023-08-06T14:41:50;19.30;92.10
423;DHT22;198;48.752;9.180;2023-08-06T14:44:15;18.90;93.30
423;DHT22;198;48.752;9.180;2023-08-06T14:46:41;18.70;95.50
423;DHT22;198;48.752;9.180;2023-08-06T14:49:06;18.60;97.40
423;DHT22;198;48.752;9.180;2023-08-06T14:51:32;18.20;99.90
423;DHT22;198;48.752;9.180;2023-08-06T14:53:57;17.90;99.90
423;DHT22;198;48.752;9.180;2023-08-06T14:56:23;18.10;99.90
423;DHT22;198;48.752;9.180;2023-08-06T14:58:48;18.40;99.90
423;DHT22;198;48.752;9.180;2023-08-06T15:01:14;18.30;99.90
423;DHT22;198;48.752;9.180;2023-08-06T15:03:39;18.00;99.90
423;DHT22;198;48.752;9.180;2023-08-06T15:06:05;17.60;99.90
423;DHT22;198;48.752;9.180;2023-08-06T15:08:30;17.30;99.90
423;DHT22;198;48.752;9.180;2023-08-06T15:10:56;17.10;99.90
423;DHT22;198;48.752;9.180;2023-08-06T15:13:21;17.40;99.90
423;DHT22;198;48.752;9.180;2023-08-06T15:15:48;18.50;99.90
423;DHT22;198;48.752;9.180;2023-08-06T15:18:13;20.10;99.90
423;DHT22;198;48.752;9.180;2023-08-06T15:20:39;21.10;99.90
423;DHT22;198;48.752;9.180;2023-08-06T15:23:04;23.60;92.10
423;DHT22;198;48.752;9.180;2023-08-06T15:25:30;26.50;73.00
423;DHT22;198;48.752;9.180;2023-08-06T15:27:55;29.20;56.80
423;DHT22;198;48.752;9.180;2023-08-06T15:30:21;29.80;50.50
423;DHT22;198;48.752;9.180;2023-08-06T15:32:47;28.40;49.40
423;DHT22;198;48.752;9.180;2023-08-06T15:35:13;27.90;50.70
423;DHT22;198;48.752;9.180;2023-08-06T15:37:39;28.80;49.50
423;DHT22;198;48.752;9.180;2023-08-06T15:40:06;29.80;46.80
423;DHT22;198;48.752;9.180;2023-08-06T15:42:31;30.70;44.60
423;DHT22;198;48.752;9.180;2023-08-06T15:44:57;30.40;44.10
423;DHT22;198;48.752;9.180;2023-08-06T15:47:22;30.20;44.50
423;DHT22;198;48.752;9.180;2023-08-06T15:49:48;29.60;44.20
423;DHT22;198;48.752;9.180;2023-08-06T15:52:14;30.10;43.40
423;DHT22;198;48.752;9.180;2023-08-06T15:54:39;29.50;42.80
423;DHT22;198;48.752;9.180;2023-08-06T15:57:05;29.60;43.70
423;DHT22;198;48.752;9.180;2023-08-06T15:59:31;30.00;42.50
423;DHT22;198;48.752;9.180;2023-08-06T16:01:58;29.30;43.10
423;DHT22;198;48.752;9.180;2023-08-06T16:04:25;29.20;42.10
423;DHT22;198;48.752;9.180;2023-08-06T16:06:51;27.40;43.90
423;DHT22;198;48.752;9.180;2023-08-06T16:09:17;25.60;46.80
423;DHT22;198;48.752;9.180;2023-08-06T16:11:44;25.00;49.70
423;DHT22;198;48.752;9.180;2023-08-06T16:14:09;25.60;48.80
423;DHT22;198;48.752;9.180;2023-08-06T16:16:35;27.40;46.70
423;DHT22;198;48.752;9.180;2023-08-06T16:19:04;27.40;45.00
423;DHT22;198;48.752;9.180;2023-08-06T16:21:30;26.20;45.90
423;DHT22;198;48.752;9.180;2023-08-06T16:23:55;25.20;47.60
423;DHT22;198;48.752;9.180;2023-08-06T16:26:21;24.10;48.80
423;DHT22;198;48.752;9.180;2023-08-06T16:28:47;22.70;51.30
423;DHT22;198;48.752;9.180;2023-08-06T16:31:12;21.60;53.80
423;DHT22;198;48.752;9.180;2023-08-06T16:33:38;20.80;56.00
423;DHT22;198;48.752;9.180;2023-08-06T16:36:04;20.10;58.00